AXQ weather

Clarion County Airport
Clarion, Pennsylvania, United States

Public forecast

Using degrees Fahrenheit for public forecast. Weather courtesy of forecast.io.

METAR (pilot weather report)

Closest report is Venango Regional Airport, 21.0 nm (38.9 km) WNW. Retrieved 2019/04/21 09:16 UTC (36 minutes ago):

KFKL 210916Z AUTO 27006KT 9SM OVC005 07/07 A2986 RMK AO2 CIG 003V009

TAF (pilot weather forecast)

Closest forecast is Venango Regional Airport, 21.0 nm (38.9 km) WNW. Retrieved 2019/04/21 06:33 UTC (3 hours ago):

TAF KFKL 210529Z 2106/2206 26006KT P6SM VCSH OVC015 TEMPO 2106/2110 BKN006 FM211600 25008KT P6SM BKN025 FM211800 26007KT P6SM OVC035